Time;durP1;ratioP1;P1;durP2;ratioP2;P2;SDS_P1;SDS_P2;PMS_P1;PMS_P2;Temp;Humidity;BMP_temperature;BMP_pressure;BME280_temperature;BME280_humidity;BME280_pressure;Samples;Min_cycle;Max_cycle;Signal;HPM_P1;HPM_P2
2024/02/05 00:00:48;;;;;;;0.50;0.50;;;;;;;3.57;74.52;98655.56;5084774;28;20043;-66
2024/02/05 00:03:13;;;;;;;1.50;1.10;;;;;;;3.55;74.12;98652.16;5083525;28;20029;-67
2024/02/05 00:05:39;;;;;;;1.95;1.73;;;;;;;3.54;73.03;98658.16;5083496;28;20024;-66
2024/02/05 00:08:05;;;;;;;0.70;0.70;;;;;;;3.64;73.21;98649.53;5084890;28;20032;-65
2024/02/05 00:10:30;;;;;;;5.72;1.17;;;;;;;3.64;72.78;98653.81;5084821;28;20032;-65
2024/02/05 00:12:56;;;;;;;1.00;0.70;;;;;;;3.64;72.09;98649.53;5084755;28;20047;-66
2024/02/05 00:15:21;;;;;;;0.50;0.50;;;;;;;3.67;71.57;98646.94;5083480;28;20025;-66
2024/02/05 00:17:47;;;;;;;0.95;0.95;;;;;;;3.61;70.73;98644.38;5084316;28;20095;-66
2024/02/05 00:20:12;;;;;;;7.13;0.98;;;;;;;3.61;70.15;98661.53;5084061;28;20029;-64
2024/02/05 00:22:38;;;;;;;6.85;1.67;;;;;;;3.63;69.34;98670.03;5084507;28;20036;-65
2024/02/05 00:25:04;;;;;;;4.22;1.45;;;;;;;3.65;69.38;98653.78;5084579;28;20492;-65
2024/02/05 00:27:29;;;;;;;6.07;3.00;;;;;;;3.61;69.48;98657.22;5084231;28;20020;-65
2024/02/05 00:29:54;;;;;;;1.17;0.93;;;;;;;3.63;69.19;98644.38;5086661;28;20032;-67
2024/02/05 00:32:20;;;;;;;0.90;0.80;;;;;;;3.63;69.06;98640.09;5088266;28;20020;-65
2024/02/05 00:34:45;;;;;;;0.82;0.82;;;;;;;3.59;69.07;98646.97;5086797;28;20050;-65
2024/02/05 00:37:11;;;;;;;0.50;0.50;;;;;;;3.78;68.80;98667.38;5088275;28;20038;-65
2024/02/05 00:39:36;;;;;;;0.55;0.55;;;;;;;3.75;69.54;98675.09;5087076;28;20028;-65
2024/02/05 00:42:02;;;;;;;7.38;2.33;;;;;;;3.78;69.86;98675.06;5088297;28;20024;-65
2024/02/05 00:44:27;;;;;;;9.63;1.83;;;;;;;3.78;70.28;98669.06;5088316;28;20263;-66
2024/02/05 00:46:53;;;;;;;0.57;0.52;;;;;;;3.79;70.31;98681.91;5088076;28;20096;-65
2024/02/05 00:49:18;;;;;;;0.40;0.40;;;;;;;3.74;70.57;98672.53;5088012;28;20055;-66
2024/02/05 00:51:44;;;;;;;2.45;1.58;;;;;;;3.75;70.68;98684.50;5087915;28;20088;-66
2024/02/05 00:54:09;;;;;;;17.88;2.15;;;;;;;3.73;70.74;98684.50;5087884;28;20032;-66
2024/02/05 00:56:35;;;;;;;0.50;0.50;;;;;;;3.71;70.46;98679.41;5088062;28;20155;-66
2024/02/05 00:59:00;;;;;;;3.83;2.63;;;;;;;3.70;70.32;98657.19;5088123;28;20016;-65
2024/02/05 01:01:25;;;;;;;2.10;1.95;;;;;;;3.72;70.15;98650.28;5087992;28;20021;-66
2024/02/05 01:03:51;;;;;;;10.60;2.15;;;;;;;3.85;69.93;98668.16;5087775;28;20536;-66
2024/02/05 01:06:16;;;;;;;1.23;1.20;;;;;;;3.86;70.10;98661.31;5087130;28;20017;-66
2024/02/05 01:08:42;;;;;;;0.80;0.80;;;;;;;3.85;68.88;98655.31;5086448;28;20020;-66
2024/02/05 01:11:07;;;;;;;5.75;2.97;;;;;;;3.89;68.95;98654.44;5087799;28;20021;-66
2024/02/05 01:13:32;;;;;;;5.97;0.82;;;;;;;3.88;69.03;98655.31;5087602;28;20063;-66
2024/02/05 01:15:59;;;;;;;2.15;1.10;;;;;;;3.87;68.75;98663.84;5087624;28;20016;-66
2024/02/05 01:18:24;;;;;;;5.15;1.42;;;;;;;3.89;68.52;98639.03;5086669;28;20086;-66
2024/02/05 01:20:50;;;;;;;0.50;0.50;;;;;;;3.92;68.62;98641.56;5087239;28;20020;-66
2024/02/05 01:23:15;;;;;;;0.70;0.70;;;;;;;3.98;68.27;98653.47;5087421;28;20047;-65
2024/02/05 01:25:40;;;;;;;11.23;2.83;;;;;;;3.92;68.45;98662.09;5087381;28;20028;-66
2024/02/05 01:28:06;;;;;;;6.18;1.83;;;;;;;3.97;68.46;98652.66;5086080;28;20021;-66
2024/02/05 01:30:32;;;;;;;2.53;1.50;;;;;;;3.90;68.45;98648.41;5087378;28;20032;-66
2024/02/05 01:32:58;;;;;;;19.48;1.50;;;;;;;3.96;68.53;98647.53;5087164;28;20020;-66
2024/02/05 01:35:23;;;;;;;0.73;0.73;;;;;;;4.04;68.15;98660.28;5087004;28;20024;-66
2024/02/05 01:37:49;;;;;;;7.80;1.67;;;;;;;3.96;68.61;98650.94;5085866;28;20025;-67
2024/02/05 01:40:14;;;;;;;4.90;1.40;;;;;;;4.00;68.41;98661.16;5086853;28;20123;-66
2024/02/05 01:42:40;;;;;;;3.13;2.40;;;;;;;3.96;68.25;98657.81;5087044;28;20039;-65
2024/02/05 01:45:06;;;;;;;0.50;0.50;;;;;;;3.93;68.62;98657.84;5086828;28;20025;-66
2024/02/05 01:47:37;;;;;;;20.50;2.08;;;;;;;3.92;68.90;98662.09;5086731;28;20476;-65
2024/02/05 01:50:06;;;;;;;1.10;1.05;;;;;;;3.91;69.27;98667.25;5086783;28;20025;-65
2024/02/05 01:52:35;;;;;;;0.40;0.40;;;;;;;3.93;69.46;98652.69;5085391;28;20020;-66
2024/02/05 01:55:05;;;;;;;0.73;0.73;;;;;;;3.90;69.98;98656.13;5086876;28;20020;-66
2024/02/05 01:57:31;;;;;;;8.18;1.27;;;;;;;4.00;70.33;98643.19;5087156;28;20048;-66
2024/02/05 01:59:57;;;;;;;0.50;0.50;;;;;;;4.03;70.60;98659.44;5085660;28;20028;-66
2024/02/05 02:02:24;;;;;;;2.60;1.45;;;;;;;4.00;70.98;98661.16;5086572;28;20384;-65
2024/02/05 02:04:49;;;;;;;3.13;2.85;;;;;;;3.95;71.24;98656.94;5086555;28;20044;-66
2024/02/05 02:07:15;;;;;;;14.35;2.25;;;;;;;4.01;71.48;98661.16;5086746;28;20036;-66
2024/02/05 02:09:41;;;;;;;3.92;1.33;;;;;;;4.02;71.69;98651.75;5086475;28;20052;-66
2024/02/05 02:12:07;;;;;;;3.53;1.15;;;;;;;3.97;72.00;98657.78;5086508;28;20655;-66
2024/02/05 02:14:32;;;;;;;1.10;1.05;;;;;;;3.91;72.58;98660.41;5085347;28;20517;-66
2024/02/05 02:16:58;;;;;;;0.40;0.40;;;;;;;3.91;72.88;98657.84;5086274;28;20017;-66
2024/02/05 02:19:41;;;;;;;13.05;2.47;;;;;;;3.88;73.05;98657.88;5086341;28;20078;-67
2024/02/05 02:22:20;;;;;;;1.13;1.10;;;;;;;3.93;73.42;98679.19;5086314;28;20021;-67
2024/02/05 02:24:46;;;;;;;8.27;2.67;;;;;;;3.84;73.49;98674.16;5084934;28;20116;-66
2024/02/05 02:27:11;;;;;;;6.82;1.77;;;;;;;3.84;73.86;98674.16;5084864;28;20051;-66
2024/02/05 02:29:36;;;;;;;1.33;1.23;;;;;;;3.85;73.75;98683.53;5086199;28;20025;-66
2024/02/05 02:32:27;;;;;;;1.13;1.13;;;;;;;3.89;73.34;98676.69;5086042;28;20089;-67
2024/02/05 02:34:57;;;;;;;0.85;0.80;;;;;;;3.83;72.53;98675.03;5084322;28;20036;-66
2024/02/05 02:37:27;;;;;;;1.23;1.15;;;;;;;3.88;72.04;98680.97;5085933;28;20047;-66
2024/02/05 02:40:05;;;;;;;18.58;2.10;;;;;;;3.82;71.30;98686.13;5084419;28;20021;-66
2024/02/05 02:42:32;;;;;;;0.50;0.50;;;;;;;3.75;70.51;98692.22;5085728;28;20080;-65
2024/02/05 02:44:58;;;;;;;1.98;1.50;;;;;;;3.66;69.94;98696.53;5085795;28;20040;-65
2024/02/05 02:47:24;;;;;;;1.65;1.30;;;;;;;3.70;69.64;98693.09;5085556;28;20041;-66
2024/02/05 02:49:49;;;;;;;0.47;0.47;;;;;;;3.69;69.72;98713.66;5085514;28;20047;-65
2024/02/05 02:52:14;;;;;;;0.50;0.50;;;;;;;3.64;69.55;98706.00;5085131;28;20028;-65
2024/02/05 02:54:40;;;;;;;0.50;0.50;;;;;;;3.66;69.65;98717.06;5083884;28;20024;-65
2024/02/05 02:57:05;;;;;;;0.65;0.65;;;;;;;3.68;69.79;98707.66;5085509;28;20017;-66
2024/02/05 02:59:31;;;;;;;0.50;0.50;;;;;;;3.65;69.86;98714.53;5084350;28;20100;-66
2024/02/05 03:01:56;;;;;;;4.57;1.75;;;;;;;3.62;69.73;98714.53;5085774;28;20020;-66
2024/02/05 03:04:22;;;;;;;0.50;0.50;;;;;;;3.62;70.00;98724.81;5085504;28;20032;-66
2024/02/05 03:06:47;;;;;;;0.50;0.50;;;;;;;3.54;70.13;98717.16;5085407;28;20112;-66
2024/02/05 03:09:12;;;;;;;0.60;0.60;;;;;;;3.57;70.03;98719.72;5084027;28;20059;-66
2024/02/05 03:11:38;;;;;;;0.60;0.60;;;;;;;3.56;70.17;98721.41;5085400;28;20028;-66
2024/02/05 03:14:03;;;;;;;0.50;0.50;;;;;;;3.63;70.00;98722.22;5085448;28;20025;-66
2024/02/05 03:16:28;;;;;;;1.13;1.05;;;;;;;3.59;70.20;98713.69;5085465;28;20033;-66
2024/02/05 03:18:54;;;;;;;0.55;0.55;;;;;;;3.54;70.31;98723.16;5085420;28;20021;-65
2024/02/05 03:21:19;;;;;;;0.50;0.50;;;;;;;3.54;70.23;98720.59;5085222;28;20025;-65
2024/02/05 03:23:45;;;;;;;6.32;1.92;;;;;;;3.63;70.31;98731.63;5085065;28;20032;-65
2024/02/05 03:26:10;;;;;;;0.50;0.50;;;;;;;3.56;70.29;98723.97;5083987;28;20099;-66
2024/02/05 03:28:36;;;;;;;0.65;0.65;;;;;;;3.52;70.29;98730.00;5085129;28;20036;-67
2024/02/05 03:31:04;;;;;;;0.50;0.50;;;;;;;3.44;70.38;98724.94;5085288;28;20042;-66
2024/02/05 03:33:29;;;;;;;0.50;0.50;;;;;;;3.47;70.33;98714.66;5085027;28;20031;-65
2024/02/05 03:35:54;;;;;;;1.70;1.13;;;;;;;3.46;69.81;98702.69;5084842;28;20032;-66
2024/02/05 03:38:20;;;;;;;2.63;2.03;;;;;;;3.46;69.84;98712.97;5084851;28;20427;-65
2024/02/05 03:40:45;;;;;;;0.55;0.55;;;;;;;3.43;69.69;98712.13;5083820;28;20035;-66
2024/02/05 03:43:10;;;;;;;1.10;1.10;;;;;;;3.48;68.91;98723.22;5085038;28;20122;-64
2024/02/05 03:45:36;;;;;;;1.88;1.58;;;;;;;3.42;68.44;98741.22;5085043;28;20050;-65
2024/02/05 03:48:01;;;;;;;0.40;0.40;;;;;;;3.40;68.25;98724.97;5084774;28;20449;-65
2024/02/05 03:50:26;;;;;;;1.58;0.60;;;;;;;3.39;67.85;98729.22;5083302;28;20103;-66
2024/02/05 03:52:52;;;;;;;3.63;0.70;;;;;;;3.39;67.69;98752.31;5084932;28;20111;-65
2024/02/05 03:55:17;;;;;;;0.55;0.55;;;;;;;3.43;67.76;98763.44;5084898;28;20051;-64
2024/02/05 03:58:00;;;;;;;0.50;0.50;;;;;;;3.40;67.17;98746.34;5084939;28;20025;-64
2024/02/05 04:00:25;;;;;;;5.65;2.50;;;;;;;3.43;66.68;98741.19;5084928;28;20035;-65
2024/02/05 04:02:51;;;;;;;2.92;0.55;;;;;;;3.46;66.81;98758.28;5083895;28;20119;-65
2024/02/05 04:05:17;;;;;;;3.40;0.60;;;;;;;3.39;66.38;98738.63;5089028;28;20027;-65
2024/02/05 04:07:43;;;;;;;0.50;0.50;;;;;;;3.40;66.07;98748.06;5089000;28;20027;-65
2024/02/05 04:10:08;;;;;;;2.88;2.65;;;;;;;3.41;65.32;98742.91;5088798;28;20036;-65
2024/02/05 04:12:34;;;;;;;0.50;0.50;;;;;;;3.45;65.15;98731.75;5088637;28;20020;-65
2024/02/05 04:14:59;;;;;;;0.50;0.50;;;;;;;3.40;65.22;98710.44;5087552;28;20025;-65
2024/02/05 04:17:24;;;;;;;0.85;0.85;;;;;;;3.39;64.80;98733.50;5088844;28;20561;-67
2024/02/05 04:19:50;;;;;;;0.70;0.70;;;;;;;3.36;64.06;98724.13;5087069;28;20036;-65
2024/02/05 04:22:16;;;;;;;0.55;0.55;;;;;;;3.35;64.28;98738.66;5088774;28;20047;-65
2024/02/05 04:24:41;;;;;;;2.88;1.45;;;;;;;3.37;64.23;98715.56;5088577;28;20024;-65
2024/02/05 04:27:06;;;;;;;0.50;0.50;;;;;;;3.42;63.48;98736.91;5088576;28;20025;-65
2024/02/05 04:29:33;;;;;;;3.92;1.48;;;;;;;3.38;63.31;98730.09;5088520;28;20020;-65
2024/02/05 04:32:00;;;;;;;1.65;1.02;;;;;;;3.35;63.15;98732.69;5088368;28;20111;-65
2024/02/05 04:34:25;;;;;;;2.20;2.05;;;;;;;3.37;62.46;98735.25;5088499;28;20028;-66
2024/02/05 04:36:52;;;;;;;3.17;0.85;;;;;;;3.44;62.13;98734.34;5088145;28;20078;-65
2024/02/05 04:39:19;;;;;;;0.50;0.50;;;;;;;3.42;62.37;98729.22;5088338;28;20081;-65
2024/02/05 04:41:44;;;;;;;3.05;0.90;;;;;;;3.38;62.07;98745.50;5088342;28;20024;-65
2024/02/05 04:44:09;;;;;;;2.58;1.08;;;;;;;3.33;61.97;98734.41;5088213;28;20028;-66
2024/02/05 04:46:35;;;;;;;2.78;1.83;;;;;;;3.37;62.41;98741.22;5087918;28;20087;-65
2024/02/05 04:49:00;;;;;;;1.23;1.20;;;;;;;3.33;62.52;98744.66;5088206;28;20059;-65
2024/02/05 04:51:26;;;;;;;0.82;0.82;;;;;;;3.30;62.80;98745.53;5087556;28;20040;-66
2024/02/05 04:53:51;;;;;;;6.35;2.35;;;;;;;3.32;62.62;98737.84;5088039;28;20028;-66
2024/02/05 04:56:17;;;;;;;2.83;0.88;;;;;;;3.26;62.43;98745.56;5087905;28;20084;-65
2024/02/05 04:58:42;;;;;;;0.55;0.55;;;;;;;3.31;62.60;98744.66;5087959;28;20036;-65
2024/02/05 05:01:07;;;;;;;0.57;0.57;;;;;;;3.31;62.32;98746.38;5087852;28;20024;-65
2024/02/05 05:03:33;;;;;;;0.73;0.70;;;;;;;3.28;62.39;98754.94;5087664;28;20025;-65
2024/02/05 05:05:59;;;;;;;2.75;0.93;;;;;;;3.31;62.61;98766.91;5120528;28;20020;-65
2024/02/05 05:08:24;;;;;;;5.43;1.88;;;;;;;3.25;62.70;98772.91;5087892;28;20080;-63
2024/02/05 05:10:50;;;;;;;4.22;2.05;;;;;;;3.29;62.71;98763.50;5087584;28;20534;-65
2024/02/05 05:13:15;;;;;;;0.80;0.80;;;;;;;3.24;63.16;98771.22;5087588;28;20098;-64
2024/02/05 05:15:41;;;;;;;0.50;0.50;;;;;;;3.28;63.09;98787.44;5085735;28;20024;-64
2024/02/05 05:18:06;;;;;;;1.65;1.05;;;;;;;3.30;63.04;98776.31;5086474;28;20025;-63
2024/02/05 05:20:31;;;;;;;1.48;1.20;;;;;;;3.29;62.89;98766.06;5087215;28;20075;-64
2024/02/05 05:22:57;;;;;;;1.10;1.05;;;;;;;3.28;62.81;98783.16;5087606;28;20495;-63
2024/02/05 05:25:22;;;;;;;0.50;0.50;;;;;;;3.29;62.85;98779.72;5087592;28;20020;-63
2024/02/05 05:27:47;;;;;;;1.75;1.30;;;;;;;3.31;62.65;98783.16;5086325;28;20024;-63
2024/02/05 05:30:13;;;;;;;1.15;1.13;;;;;;;3.27;62.62;98801.13;5087519;28;20028;-63
2024/02/05 05:32:38;;;;;;;0.50;0.50;;;;;;;3.24;62.13;98785.75;5087258;28;20021;-64
2024/02/05 05:35:04;;;;;;;0.80;0.80;;;;;;;3.22;62.14;98771.25;5087268;28;20024;-64
2024/02/05 05:37:30;;;;;;;0.50;0.50;;;;;;;3.29;61.76;98789.16;5085781;28;20043;-64
2024/02/05 05:39:55;;;;;;;0.60;0.60;;;;;;;3.26;61.46;98794.31;5085316;28;20029;-64
2024/02/05 05:42:21;;;;;;;2.08;1.35;;;;;;;3.25;61.38;98790.00;5087272;28;20020;-64
2024/02/05 05:44:46;;;;;;;2.63;2.42;;;;;;;3.25;61.43;98798.56;5087296;28;20081;-64
2024/02/05 05:47:12;;;;;;;2.78;1.52;;;;;;;3.21;60.89;98802.84;5085549;28;20045;-65
2024/02/05 05:49:37;;;;;;;1.95;1.77;;;;;;;3.22;60.76;98794.31;5087106;28;20021;-64
2024/02/05 05:52:02;;;;;;;2.40;1.05;;;;;;;3.26;60.61;98799.44;5086885;28;20020;-64
2024/02/05 05:54:30;;;;;;;1.75;1.58;;;;;;;3.26;60.64;98789.16;5086843;28;20021;-65
2024/02/05 05:56:55;;;;;;;1.33;1.25;;;;;;;3.26;60.53;98794.31;5085618;28;20032;-65
2024/02/05 05:59:21;;;;;;;0.50;0.50;;;;;;;3.17;60.33;98788.34;5086939;28;20028;-65
2024/02/05 06:01:46;;;;;;;0.40;0.40;;;;;;;3.17;60.17;98790.91;5086727;28;20027;-65
2024/02/05 06:04:11;;;;;;;0.75;0.75;;;;;;;3.22;60.07;98802.00;5086583;28;20492;-65
2024/02/05 06:06:37;;;;;;;0.73;0.73;;;;;;;3.21;60.40;98802.03;5086417;28;20081;-64
2024/02/05 06:09:05;;;;;;;1.02;1.02;;;;;;;3.17;60.44;98811.44;5085766;28;20016;-65
2024/02/05 06:11:30;;;;;;;0.90;0.90;;;;;;;3.15;60.94;98807.16;5086636;28;20020;-64
2024/02/05 06:13:56;;;;;;;0.50;0.50;;;;;;;3.17;60.89;98819.13;5086595;28;20035;-65
2024/02/05 06:16:21;;;;;;;4.68;0.65;;;;;;;3.17;60.90;98811.44;5086582;28;20040;-66
2024/02/05 06:18:46;;;;;;;0.68;0.68;;;;;;;3.20;60.90;98816.53;5086525;28;20085;-65
2024/02/05 06:21:12;;;;;;;0.77;0.77;;;;;;;3.15;60.95;98804.59;5086247;28;20546;-65
2024/02/05 06:23:37;;;;;;;0.63;0.63;;;;;;;3.17;61.14;98831.94;5086057;28;20024;-65
2024/02/05 06:26:03;;;;;;;6.63;1.95;;;;;;;3.15;61.18;98820.84;5085660;28;20020;-67
2024/02/05 06:28:28;;;;;;;0.60;0.60;;;;;;;3.13;61.21;98822.53;5085611;28;20021;-65
2024/02/05 06:30:54;;;;;;;0.50;0.50;;;;;;;3.14;61.18;98837.09;5086305;28;20024;-65
2024/02/05 06:33:19;;;;;;;0.95;0.90;;;;;;;3.17;61.00;98837.06;5085861;28;20028;-65
2024/02/05 06:35:45;;;;;;;57.08;2.80;;;;;;;3.21;61.11;98840.50;5086127;28;20020;-64
2024/02/05 06:38:11;;;;;;;0.50;0.50;;;;;;;3.18;60.84;98840.50;5085973;28;20016;-65
2024/02/05 06:40:36;;;;;;;1.05;1.05;;;;;;;3.16;60.62;98844.78;5084713;28;20024;-64
2024/02/05 06:43:02;;;;;;;0.50;0.50;;;;;;;3.08;60.10;98853.31;5086100;28;20024;-64
2024/02/05 06:45:28;;;;;;;0.88;0.88;;;;;;;3.10;60.30;98851.63;5086094;28;20021;-63
2024/02/05 06:47:53;;;;;;;0.77;0.77;;;;;;;3.12;60.13;98866.13;5118440;28;20073;-65
2024/02/05 06:50:19;;;;;;;0.63;0.63;;;;;;;3.10;60.30;98864.44;5085528;28;20042;-64
2024/02/05 06:52:45;;;;;;;0.77;0.77;;;;;;;3.15;59.95;98879.81;5086162;28;20035;-64
2024/02/05 06:55:11;;;;;;;0.95;0.70;;;;;;;3.13;60.17;98866.13;5084810;28;20047;-64
2024/02/05 06:57:36;;;;;;;3.40;2.70;;;;;;;3.08;60.20;98873.84;5085802;28;20013;-64
2024/02/05 07:00:03;;;;;;;7.78;0.98;;;;;;;3.14;60.15;98879.81;5085642;28;20051;-64
2024/02/05 07:02:29;;;;;;;11.63;1.50;;;;;;;3.14;60.40;98883.25;5085601;28;20046;-64
2024/02/05 07:04:56;;;;;;;2.97;2.78;;;;;;;3.08;60.47;98885.84;5085743;28;20028;-65
2024/02/05 07:07:21;;;;;;;2.25;1.15;;;;;;;3.07;60.40;98891.78;5085598;28;20396;-64
2024/02/05 07:09:47;;;;;;;0.88;0.88;;;;;;;3.07;60.37;98884.09;5085853;28;20488;-63
2024/02/05 07:12:13;;;;;;;0.50;0.50;;;;;;;3.08;60.68;98899.47;5084406;28;20020;-64
2024/02/05 07:14:38;;;;;;;0.75;0.75;;;;;;;3.06;60.84;98892.66;5085626;28;20028;-64
2024/02/05 07:17:03;;;;;;;21.60;3.33;;;;;;;3.09;60.52;98893.53;5085604;28;20496;-64
2024/02/05 07:19:29;;;;;;;1.63;1.52;;;;;;;3.07;60.68;98887.53;5085573;28;20092;-64
2024/02/05 07:21:54;;;;;;;0.60;0.60;;;;;;;3.12;60.65;98899.47;5085327;28;20453;-64
2024/02/05 07:24:19;;;;;;;0.60;0.60;;;;;;;3.10;60.49;98891.78;5085289;28;20028;-64
2024/02/05 07:26:44;;;;;;;0.73;0.73;;;;;;;3.04;60.68;98895.22;5085385;28;20070;-64
2024/02/05 07:29:10;;;;;;;1.08;1.00;;;;;;;3.08;60.51;98890.97;5085434;28;20050;-65
2024/02/05 07:31:35;;;;;;;1.00;1.00;;;;;;;3.13;60.75;98903.78;5085596;28;20027;-65
2024/02/05 07:34:00;;;;;;;7.63;1.15;;;;;;;3.15;60.76;98904.59;5085314;28;20027;-65
2024/02/05 07:36:26;;;;;;;0.50;0.50;;;;;;;3.25;60.63;98900.31;5083913;28;20362;-64
2024/02/05 07:38:51;;;;;;;6.00;1.52;;;;;;;3.28;60.50;98905.44;5084890;28;20028;-64
2024/02/05 07:41:17;;;;;;;0.50;0.50;;;;;;;3.27;60.64;98927.69;5085164;28;20032;-64
2024/02/05 07:43:42;;;;;;;0.50;0.50;;;;;;;3.29;60.28;98912.28;5085158;28;20052;-65
2024/02/05 07:46:08;;;;;;;2.83;0.75;;;;;;;3.40;60.36;98915.69;5084919;28;20467;-64
2024/02/05 07:48:37;;;;;;;7.90;1.92;;;;;;;3.45;60.60;98916.50;5085317;28;20094;-65
2024/02/05 07:51:05;;;;;;;0.50;0.50;;;;;;;3.49;60.19;98913.91;5084977;28;20143;-64
2024/02/05 07:53:31;;;;;;;0.80;0.80;;;;;;;3.62;59.92;98919.84;5085014;28;20027;-64
2024/02/05 07:55:56;;;;;;;0.88;0.88;;;;;;;3.80;59.77;98911.22;5083895;28;20016;-64
2024/02/05 07:58:22;;;;;;;6.43;0.90;;;;;;;4.03;59.79;98905.09;5085164;28;20047;-64
2024/02/05 08:00:48;;;;;;;1.85;1.75;;;;;;;4.24;59.19;98913.53;5085088;28;20028;-64
2024/02/05 08:03:13;;;;;;;3.70;1.85;;;;;;;4.34;58.39;98899.78;5085157;28;20028;-63
2024/02/05 08:05:39;;;;;;;0.50;0.50;;;;;;;4.49;58.00;98903.94;5084953;28;20020;-63
2024/02/05 08:08:05;;;;;;;1.85;1.25;;;;;;;4.60;57.59;98888.41;5084899;28;20077;-64
2024/02/05 08:10:30;;;;;;;0.50;0.50;;;;;;;4.82;57.12;98898.53;5085099;28;20036;-63
2024/02/05 08:12:55;;;;;;;6.45;2.03;;;;;;;4.96;56.70;98909.53;5084903;28;20111;-63
2024/02/05 08:15:21;;;;;;;0.68;0.65;;;;;;;5.18;56.59;98909.31;5084969;28;20103;-63
2024/02/05 08:17:46;;;;;;;0.50;0.50;;;;;;;5.44;55.84;98905.63;5084884;28;20483;-63
2024/02/05 08:20:13;;;;;;;0.75;0.75;;;;;;;5.69;55.51;98915.59;5084582;28;20025;-63
2024/02/05 08:22:38;;;;;;;1.85;1.42;;;;;;;5.86;55.37;98911.97;5084893;28;20083;-64
2024/02/05 08:25:04;;;;;;;5.95;1.25;;;;;;;5.89;54.77;98909.38;5084922;28;20024;-64
2024/02/05 08:27:30;;;;;;;1.42;1.35;;;;;;;5.79;54.67;98931.81;5117474;28;20021;-63
2024/02/05 08:29:55;;;;;;;3.00;1.77;;;;;;;5.67;54.66;98937.94;5084788;28;20090;-62
2024/02/05 08:32:20;;;;;;;3.50;1.40;;;;;;;5.53;54.13;98930.38;5084750;28;20051;-64
2024/02/05 08:34:45;;;;;;;1.40;0.90;;;;;;;5.44;54.66;98933.06;5084570;28;20389;-65
2024/02/05 08:37:11;;;;;;;0.50;0.50;;;;;;;5.40;54.99;98926.25;5084595;28;20046;-62
2024/02/05 08:39:36;;;;;;;4.63;1.35;;;;;;;5.41;54.79;98913.38;5083400;28;20027;-63
2024/02/05 08:42:02;;;;;;;6.43;1.10;;;;;;;5.61;54.98;98932.03;5084706;28;20025;-64
2024/02/05 08:44:27;;;;;;;1.13;0.90;;;;;;;5.79;54.17;98928.38;5084549;28;20025;-64
2024/02/05 08:46:53;;;;;;;1.42;0.95;;;;;;;6.06;54.06;98939.22;5084248;28;20072;-64
2024/02/05 08:49:19;;;;;;;0.85;0.85;;;;;;;6.37;53.74;98950.81;5084695;28;20040;-63
2024/02/05 08:51:45;;;;;;;0.47;0.47;;;;;;;6.45;52.93;98952.38;5087829;28;20465;-64
2024/02/05 08:54:10;;;;;;;4.70;0.82;;;;;;;6.65;52.85;98947.81;5087959;28;20020;-64
2024/02/05 08:56:35;;;;;;;2.22;0.90;;;;;;;6.64;52.86;98959.00;5088206;28;20059;-64
2024/02/05 08:59:01;;;;;;;4.00;1.58;;;;;;;6.66;52.34;98963.25;5088128;28;20027;-64
2024/02/05 09:01:26;;;;;;;1.98;1.02;;;;;;;6.62;52.57;98953.88;5088136;28;20031;-64
2024/02/05 09:03:51;;;;;;;0.50;0.50;;;;;;;6.65;52.49;98951.25;5087860;28;20029;-65
2024/02/05 09:06:17;;;;;;;1.58;1.13;;;;;;;6.58;52.51;98936.75;5087859;28;20099;-65
2024/02/05 09:08:42;;;;;;;8.20;2.22;;;;;;;6.76;52.68;98945.91;5087955;28;20060;-64
2024/02/05 09:11:08;;;;;;;0.50;0.50;;;;;;;6.87;52.26;98958.63;5088117;28;20503;-64
2024/02/05 09:13:34;;;;;;;4.57;1.45;;;;;;;6.85;52.46;98955.25;5087888;28;20530;-64
2024/02/05 09:15:59;;;;;;;2.70;0.77;;;;;;;6.80;51.85;98962.19;5087845;28;20032;-62
2024/02/05 09:18:24;;;;;;;2.42;0.93;;;;;;;6.75;52.32;98964.00;5087875;28;20075;-64
2024/02/05 09:20:50;;;;;;;1.85;1.13;;;;;;;6.64;52.42;98959.88;5087736;28;20028;-63
2024/02/05 09:23:16;;;;;;;3.13;1.17;;;;;;;6.63;51.77;98965.88;5087702;28;20396;-64
2024/02/05 09:25:42;;;;;;;1.40;0.98;;;;;;;6.55;51.56;98953.09;5087564;28;20505;-64
2024/02/05 09:28:10;;;;;;;1.70;0.98;;;;;;;6.69;52.35;98960.63;5086319;28;20042;-64
2024/02/05 09:30:38;;;;;;;5.25;0.70;;;;;;;6.82;51.71;98950.97;5087649;28;20126;-65
2024/02/05 09:33:04;;;;;;;0.50;0.50;;;;;;;6.68;51.30;98961.50;5087366;28;20024;-67
2024/02/05 09:35:29;;;;;;;4.35;1.27;;;;;;;6.64;51.73;98954.72;5087342;28;20059;-64
2024/02/05 09:37:55;;;;;;;0.80;0.80;;;;;;;6.66;50.55;98955.50;5087724;28;20017;-64
2024/02/05 09:40:20;;;;;;;1.83;1.17;;;;;;;6.62;50.76;98971.06;5086722;28;20048;-64
2024/02/05 09:42:46;;;;;;;1.85;1.05;;;;;;;6.61;51.15;98965.06;5114977;22;20054;-64
2024/02/05 09:45:15;;;;;;;2.40;1.92;;;;;;;6.59;50.65;98974.56;5127557;28;20043;-63
2024/02/05 09:47:41;;;;;;;1.20;0.95;;;;;;;6.75;50.74;98974.31;5129386;27;20023;-65
2024/02/05 09:50:08;;;;;;;1.85;1.10;;;;;;;6.85;50.61;98973.31;5148245;27;20386;-63
2024/02/05 09:52:37;;;;;;;2.88;0.60;;;;;;;6.79;50.20;98981.97;5147954;27;20042;-64
2024/02/05 09:55:03;;;;;;;3.15;0.98;;;;;;;6.86;50.64;98987.91;5129912;27;20066;-64
2024/02/05 09:57:30;;;;;;;7.78;0.80;;;;;;;6.81;50.21;98987.97;5148578;27;20030;-62
2024/02/05 09:59:56;;;;;;;4.53;1.67;;;;;;;6.77;49.33;98982.88;5148147;27;20015;-64
2024/02/05 10:02:24;;;;;;;4.13;1.02;;;;;;;6.76;49.46;98987.19;5148175;27;20023;-64
2024/02/05 10:04:51;;;;;;;0.98;0.98;;;;;;;6.83;48.78;98995.69;5129564;27;20091;-63
2024/02/05 10:07:19;;;;;;;0.93;0.77;;;;;;;7.08;49.20;99005.59;5148017;27;20023;-64
2024/02/05 10:12:11;;;;;;;0.40;0.40;;;;;;;7.84;49.09;99002.53;5072912;22;20076;-70
2024/02/05 10:14:42;;;;;;;1.80;1.00;;;;;;;8.22;48.30;99003.47;5066617;28;20484;-69
2024/02/05 10:17:07;;;;;;;0.57;0.57;;;;;;;8.50;47.62;99000.28;5066650;28;20021;-70
2024/02/05 10:19:34;;;;;;;0.60;0.55;;;;;;;8.91;47.89;98996.78;5066602;28;20134;-71
2024/02/05 10:22:00;;;;;;;0.85;0.77;;;;;;;9.04;46.70;98997.34;5066370;28;20067;-70
2024/02/05 10:24:25;;;;;;;0.70;0.70;;;;;;;9.19;45.40;99016.81;5088294;23;20052;-65
2024/02/05 10:26:51;;;;;;;1.67;0.77;;;;;;;9.41;45.09;99011.06;5091163;23;20048;-67
2024/02/05 10:29:17;;;;;;;1.13;0.82;;;;;;;9.57;44.78;99008.09;5086598;28;20171;-68
2024/02/05 10:31:49;;;;;;;8.80;1.48;;;;;;;9.55;43.68;99002.97;5086388;28;20028;-68
2024/02/05 10:34:19;;;;;;;0.93;0.63;;;;;;;9.60;44.67;99001.06;5085029;28;20020;-68
2024/02/05 10:36:45;;;;;;;1.85;0.95;;;;;;;9.71;43.13;99002.53;5086061;28;20033;-68
2024/02/05 10:39:18;;;;;;;1.85;0.95;;;;;;;9.64;43.38;99012.22;5086271;28;20051;-67
2024/02/05 10:41:44;;;;;;;12.18;2.35;;;;;;;9.40;43.72;99017.16;5085053;28;20544;-67
2024/02/05 10:44:09;;;;;;;2.53;1.02;;;;;;;9.10;43.53;99024.81;5085828;28;20039;-67
2024/02/05 10:46:35;;;;;;;2.83;0.93;;;;;;;8.62;43.58;99031.97;5086046;28;20021;-68
2024/02/05 10:49:03;;;;;;;8.95;1.58;;;;;;;8.13;43.33;99053.63;5068022;28;20512;-67
2024/02/05 10:51:28;;;;;;;12.98;1.23;;;;;;;7.65;43.95;99055.38;5085820;28;20075;-68
2024/02/05 10:53:54;;;;;;;1.45;0.60;;;;;;;7.59;44.33;99047.75;5085800;28;20020;-68
2024/02/05 10:56:20;;;;;;;1.67;0.75;;;;;;;7.37;43.98;99055.88;5085684;28;20031;-68
2024/02/05 10:58:46;;;;;;;1.17;0.93;;;;;;;7.33;44.41;99046.50;5103769;23;20043;-65
2024/02/05 11:01:18;;;;;;;0.70;0.70;;;;;;;7.32;44.88;99039.63;5126503;28;20020;-65
2024/02/05 11:03:44;;;;;;;3.20;0.70;;;;;;;7.26;44.64;99050.03;5126462;28;20019;-65
2024/02/05 11:06:12;;;;;;;0.60;0.60;;;;;;;7.35;45.04;99047.31;5126325;28;20015;-65
2024/02/05 11:08:40;;;;;;;0.68;0.47;;;;;;;7.28;44.85;99038.84;5108121;28;20031;-65
2024/02/05 11:11:09;;;;;;;2.35;1.52;;;;;;;7.27;44.91;99054.31;5126324;28;20019;-65
2024/02/05 11:13:45;;;;;;;8.23;0.93;;;;;;;7.20;44.99;99032.94;5107455;28;20016;-64
2024/02/05 11:16:12;;;;;;;6.38;1.15;;;;;;;6.95;45.07;99035.91;5108058;28;20106;-65
2024/02/05 11:18:46;;;;;;;0.88;0.82;;;;;;;6.66;45.44;99038.03;5126253;28;20041;-65
2024/02/05 11:21:14;;;;;;;16.48;1.15;;;;;;;6.37;45.37;99059.09;5126308;28;20051;-65
2024/02/05 11:23:43;;;;;;;1.17;1.15;;;;;;;6.12;45.11;99043.94;5126168;28;20053;-65
2024/02/05 11:26:08;;;;;;;3.03;1.08;;;;;;;5.99;45.74;99056.91;5126270;28;20028;-65
2024/02/05 11:28:34;;;;;;;0.50;0.50;;;;;;;5.99;46.08;99059.47;5125886;28;20461;-64
2024/02/05 11:31:02;;;;;;;2.83;1.30;;;;;;;5.85;46.37;99049.34;5126139;28;20499;-64
2024/02/05 11:33:30;;;;;;;2.28;1.52;;;;;;;5.68;46.33;99042.66;5107392;28;20042;-65
2024/02/05 11:35:56;;;;;;;1.35;1.15;;;;;;;5.66;46.46;99058.97;5126035;28;20027;-65
2024/02/05 11:38:23;;;;;;;18.80;1.88;;;;;;;5.69;46.97;99048.66;5125977;28;20370;-64